sensor_id;sensor_type;location;lat;lon;timestamp;pressure;altitude;pressure_sealevel;temperature;humidity
15267;BME280;7735;49.144;8.668;2023-01-25T00:01:53;101967.31;;;6.05;61.87
15267;BME280;7735;49.144;8.668;2023-01-25T00:04:20;101966.44;;;6.04;62.13
15267;BME280;7735;49.144;8.668;2023-01-25T00:06:47;101963.06;;;6.07;61.97
15267;BME280;7735;49.144;8.668;2023-01-25T00:09:16;101957.91;;;6.07;61.99
15267;BME280;7735;49.144;8.668;2023-01-25T00:11:43;101960.50;;;6.07;61.87
15267;BME280;7735;49.144;8.668;2023-01-25T00:14:11;101958.72;;;6.06;61.83
15267;BME280;7735;49.144;8.668;2023-01-25T00:16:38;101956.16;;;6.06;62.15
15267;BME280;7735;49.144;8.668;2023-01-25T00:19:05;101960.50;;;6.07;61.98
15267;BME280;7735;49.144;8.668;2023-01-25T00:21:33;101950.09;;;6.05;61.79
15267;BME280;7735;49.144;8.668;2023-01-25T00:24:00;101950.03;;;6.04;61.71
15267;BME280;7735;49.144;8.668;2023-01-25T00:26:31;101955.22;;;6.04;62.21
15267;BME280;7735;49.144;8.668;2023-01-25T00:28:58;101944.00;;;6.03;62.04
15267;BME280;7735;49.144;8.668;2023-01-25T00:31:30;101952.56;;;6.02;61.83
15267;BME280;7735;49.144;8.668;2023-01-25T00:34:00;101942.97;;;6.00;62.13
15267;BME280;7735;49.144;8.668;2023-01-25T00:36:33;101946.53;;;6.02;62.14
15267;BME280;7735;49.144;8.668;2023-01-25T00:39:05;101940.53;;;6.03;62.30
15267;BME280;7735;49.144;8.668;2023-01-25T00:41:33;101941.34;;;6.02;62.47
15267;BME280;7735;49.144;8.668;2023-01-25T00:44:00;101934.38;;;6.01;62.18
15267;BME280;7735;49.144;8.668;2023-01-25T00:46:27;101931.00;;;6.02;62.03
15267;BME280;7735;49.144;8.668;2023-01-25T00:48:53;101935.34;;;6.03;62.02
15267;BME280;7735;49.144;8.668;2023-01-25T00:51:21;101932.78;;;6.03;61.95
15267;BME280;7735;49.144;8.668;2023-01-25T00:53:48;101927.59;;;6.03;62.36
15267;BME280;7735;49.144;8.668;2023-01-25T00:56:14;101924.97;;;6.01;62.04
15267;BME280;7735;49.144;8.668;2023-01-25T00:58:43;101918.88;;;6.01;62.10
15267;BME280;7735;49.144;8.668;2023-01-25T01:01:10;101916.38;;;6.02;62.00
15267;BME280;7735;49.144;8.668;2023-01-25T01:03:37;101914.63;;;6.01;62.15
15267;BME280;7735;49.144;8.668;2023-01-25T01:06:05;101917.13;;;6.00;61.96
15267;BME280;7735;49.144;8.668;2023-01-25T01:08:33;101910.19;;;5.99;62.21
15267;BME280;7735;49.144;8.668;2023-01-25T01:11:01;101905.91;;;5.99;62.04
15267;BME280;7735;49.144;8.668;2023-01-25T01:13:29;101903.25;;;5.97;62.42
15267;BME280;7735;49.144;8.668;2023-01-25T01:16:00;101905.03;;;5.99;62.15
15267;BME280;7735;49.144;8.668;2023-01-25T01:18:27;101910.19;;;5.99;62.08
15267;BME280;7735;49.144;8.668;2023-01-25T01:20:54;101915.34;;;5.99;62.38
15267;BME280;7735;49.144;8.668;2023-01-25T01:23:20;101910.19;;;5.99;62.08
15267;BME280;7735;49.144;8.668;2023-01-25T01:25:47;101915.34;;;5.99;62.15
15267;BME280;7735;49.144;8.668;2023-01-25T01:28:15;101912.78;;;5.99;62.03
15267;BME280;7735;49.144;8.668;2023-01-25T01:31:05;101918.81;;;5.99;62.54
15267;BME280;7735;49.144;8.668;2023-01-25T01:33:32;101915.34;;;5.99;62.08
15267;BME280;7735;49.144;8.668;2023-01-25T01:36:05;101918.00;;;6.00;62.13
15267;BME280;7735;49.144;8.668;2023-01-25T01:38:32;101917.13;;;6.00;62.14
15267;BME280;7735;49.144;8.668;2023-01-25T01:40:58;101911.91;;;5.98;62.46
15267;BME280;7735;49.144;8.668;2023-01-25T01:43:25;101913.59;;;5.97;62.01
15267;BME280;7735;49.144;8.668;2023-01-25T01:45:54;101906.78;;;6.00;62.05
15267;BME280;7735;49.144;8.668;2023-01-25T01:48:29;101905.91;;;5.99;62.06
15267;BME280;7735;49.144;8.668;2023-01-25T01:50:58;101898.09;;;5.97;62.20
15267;BME280;7735;49.144;8.668;2023-01-25T01:53:27;101905.78;;;5.96;62.28
15267;BME280;7735;49.144;8.668;2023-01-25T01:55:58;101895.41;;;5.94;62.29
15267;BME280;7735;49.144;8.668;2023-01-25T01:58:26;101906.66;;;5.96;62.42
15267;BME280;7735;49.144;8.668;2023-01-25T02:00:52;101907.56;;;5.97;62.14
15267;BME280;7735;49.144;8.668;2023-01-25T02:03:19;101898.09;;;5.97;62.26
15267;BME280;7735;49.144;8.668;2023-01-25T02:05:51;101910.06;;;5.95;62.37
15267;BME280;7735;49.144;8.668;2023-01-25T02:08:20;101910.91;;;5.94;62.50
15267;BME280;7735;49.144;8.668;2023-01-25T02:10:48;101909.16;;;5.93;62.27
15267;BME280;7735;49.144;8.668;2023-01-25T02:13:16;101908.19;;;5.91;62.13
15267;BME280;7735;49.144;8.668;2023-01-25T02:15:45;101897.84;;;5.91;62.75
15267;BME280;7735;49.144;8.668;2023-01-25T02:18:13;101903.84;;;5.90;62.29
15267;BME280;7735;49.144;8.668;2023-01-25T02:20:42;101898.66;;;5.90;62.52
15267;BME280;7735;49.144;8.668;2023-01-25T02:23:17;101897.69;;;5.88;62.62
15267;BME280;7735;49.144;8.668;2023-01-25T02:25:48;101899.34;;;5.86;62.78
15267;BME280;7735;49.144;8.668;2023-01-25T02:28:18;101895.06;;;5.87;62.74
15267;BME280;7735;49.144;8.668;2023-01-25T02:30:46;101889.88;;;5.87;62.39
15267;BME280;7735;49.144;8.668;2023-01-25T02:33:13;101892.53;;;5.88;62.91
15267;BME280;7735;49.144;8.668;2023-01-25T02:35:42;101883.00;;;5.87;62.36
15267;BME280;7735;49.144;8.668;2023-01-25T02:38:12;101878.72;;;5.88;62.56
15267;BME280;7735;49.144;8.668;2023-01-25T02:40:44;101890.81;;;5.89;62.74
15267;BME280;7735;49.144;8.668;2023-01-25T02:43:12;101881.38;;;5.89;63.24
15267;BME280;7735;49.144;8.668;2023-01-25T02:45:39;101886.53;;;5.89;62.62
15267;BME280;7735;49.144;8.668;2023-01-25T02:48:05;101884.78;;;5.88;62.90
15267;BME280;7735;49.144;8.668;2023-01-25T02:50:33;101879.66;;;5.90;62.71
15267;BME280;7735;49.144;8.668;2023-01-25T02:53:00;101884.81;;;5.90;62.84
15267;BME280;7735;49.144;8.668;2023-01-25T02:55:26;101878.78;;;5.89;62.62
15267;BME280;7735;49.144;8.668;2023-01-25T02:57:53;101878.00;;;5.90;62.81
15267;BME280;7735;49.144;8.668;2023-01-25T03:00:21;101875.41;;;5.90;62.72
15267;BME280;7735;49.144;8.668;2023-01-25T03:02:47;101878.78;;;5.89;62.93
15267;BME280;7735;49.144;8.668;2023-01-25T03:05:14;101885.66;;;5.89;62.83
15267;BME280;7735;49.144;8.668;2023-01-25T03:07:41;101880.44;;;5.87;63.11
15267;BME280;7735;49.144;8.668;2023-01-25T03:10:08;101880.44;;;5.87;62.83
15267;BME280;7735;49.144;8.668;2023-01-25T03:12:35;101883.06;;;5.89;62.75
15267;BME280;7735;49.144;8.668;2023-01-25T03:15:02;101876.19;;;5.89;62.77
15267;BME280;7735;49.144;8.668;2023-01-25T03:17:30;101874.50;;;5.90;62.92
15267;BME280;7735;49.144;8.668;2023-01-25T03:19:57;101873.59;;;5.89;62.79
15267;BME280;7735;49.144;8.668;2023-01-25T03:22:23;101865.84;;;5.89;62.79
15267;BME280;7735;49.144;8.668;2023-01-25T03:24:50;101861.56;;;5.90;62.70
15267;BME280;7735;49.144;8.668;2023-01-25T03:27:16;101864.09;;;5.88;62.98
15267;BME280;7735;49.144;8.668;2023-01-25T03:29:44;101861.41;;;5.85;62.88
15267;BME280;7735;49.144;8.668;2023-01-25T03:32:11;101857.88;;;5.83;62.96
15267;BME280;7735;49.144;8.668;2023-01-25T03:34:39;101852.56;;;5.80;63.15
15267;BME280;7735;49.144;8.668;2023-01-25T03:37:05;101852.56;;;5.80;63.00
15267;BME280;7735;49.144;8.668;2023-01-25T03:39:32;101859.41;;;5.78;63.09
15267;BME280;7735;49.144;8.668;2023-01-25T03:41:58;101852.47;;;5.77;63.17
15267;BME280;7735;49.144;8.668;2023-01-25T03:44:25;101855.00;;;5.76;62.82
15267;BME280;7735;49.144;8.668;2023-01-25T03:46:51;101858.41;;;5.75;62.83
15267;BME280;7735;49.144;8.668;2023-01-25T03:49:18;101863.28;;;5.89;63.81
15267;BME280;7735;49.144;8.668;2023-01-25T03:51:46;101860.09;;;5.95;63.51
15267;BME280;7735;49.144;8.668;2023-01-25T03:54:13;101859.81;;;5.89;63.23
15267;BME280;7735;49.144;8.668;2023-01-25T03:56:39;101863.13;;;5.85;62.86
15267;BME280;7735;49.144;8.668;2023-01-25T03:59:06;101861.16;;;5.79;63.06
15267;BME280;7735;49.144;8.668;2023-01-25T04:01:33;101858.50;;;5.78;63.44
15267;BME280;7735;49.144;8.668;2023-01-25T04:04:00;101854.13;;;5.75;63.56
15267;BME280;7735;49.144;8.668;2023-01-25T04:06:26;101859.13;;;5.72;63.76
15267;BME280;7735;49.144;8.668;2023-01-25T04:08:54;101860.78;;;5.70;63.58
15267;BME280;7735;49.144;8.668;2023-01-25T04:11:21;101861.63;;;5.69;63.50
15267;BME280;7735;49.144;8.668;2023-01-25T04:13:48;101861.63;;;5.69;63.76
15267;BME280;7735;49.144;8.668;2023-01-25T04:16:14;101857.38;;;5.71;64.00
15267;BME280;7735;49.144;8.668;2023-01-25T04:18:41;101859.13;;;5.72;63.91
15267;BME280;7735;49.144;8.668;2023-01-25T04:21:07;101857.38;;;5.71;63.95
15267;BME280;7735;49.144;8.668;2023-01-25T04:23:34;101862.59;;;5.73;64.18
15267;BME280;7735;49.144;8.668;2023-01-25T04:26:06;101856.56;;;5.72;63.81
15267;BME280;7735;49.144;8.668;2023-01-25T04:28:34;101850.47;;;5.70;63.99
15267;BME280;7735;49.144;8.668;2023-01-25T04:31:01;101846.94;;;5.68;64.00
15267;BME280;7735;49.144;8.668;2023-01-25T04:33:30;101849.38;;;5.65;64.01
15267;BME280;7735;49.144;8.668;2023-01-25T04:35:57;101851.16;;;5.66;64.37
15267;BME280;7735;49.144;8.668;2023-01-25T04:38:23;101846.78;;;5.65;64.47
15267;BME280;7735;49.144;8.668;2023-01-25T04:40:50;101836.34;;;5.62;64.28
15267;BME280;7735;49.144;8.668;2023-01-25T04:43:19;101838.88;;;5.60;64.24
15267;BME280;7735;49.144;8.668;2023-01-25T04:45:46;101839.72;;;5.59;64.19
15267;BME280;7735;49.144;8.668;2023-01-25T04:48:13;101831.91;;;5.58;64.37
15267;BME280;7735;49.144;8.668;2023-01-25T04:50:41;101841.25;;;5.56;64.32
15267;BME280;7735;49.144;8.668;2023-01-25T04:53:09;101841.22;;;5.54;64.55
15267;BME280;7735;49.144;8.668;2023-01-25T04:55:36;101845.50;;;5.54;64.26
15267;BME280;7735;49.144;8.668;2023-01-25T04:58:03;101839.41;;;5.52;64.31
15267;BME280;7735;49.144;8.668;2023-01-25T05:00:31;101844.56;;;5.52;64.48
15267;BME280;7735;49.144;8.668;2023-01-25T05:02:57;101835.06;;;5.51;64.41
15267;BME280;7735;49.144;8.668;2023-01-25T05:05:24;101828.19;;;5.51;64.63
15267;BME280;7735;49.144;8.668;2023-01-25T05:07:51;101831.59;;;5.50;64.56
15267;BME280;7735;49.144;8.668;2023-01-25T05:10:17;101827.31;;;5.51;64.31
15267;BME280;7735;49.144;8.668;2023-01-25T05:12:44;101832.41;;;5.49;64.41
15267;BME280;7735;49.144;8.668;2023-01-25T05:15:10;101834.91;;;5.48;64.32
15267;BME280;7735;49.144;8.668;2023-01-25T05:17:38;101828.81;;;5.46;64.54
15267;BME280;7735;49.144;8.668;2023-01-25T05:20:06;101829.63;;;5.45;64.35
15267;BME280;7735;49.144;8.668;2023-01-25T05:22:32;101832.22;;;5.45;64.31
15267;BME280;7735;49.144;8.668;2023-01-25T05:24:59;101830.56;;;5.47;64.48
15267;BME280;7735;49.144;8.668;2023-01-25T05:27:27;101834.03;;;5.47;64.42
15267;BME280;7735;49.144;8.668;2023-01-25T05:29:53;101841.66;;;5.44;64.27
15267;BME280;7735;49.144;8.668;2023-01-25T05:32:24;101837.31;;;5.43;64.36
15267;BME280;7735;49.144;8.668;2023-01-25T05:34:55;101834.75;;;5.43;64.66
15267;BME280;7735;49.144;8.668;2023-01-25T05:37:36;101835.50;;;5.40;64.55
15267;BME280;7735;49.144;8.668;2023-01-25T05:40:03;101825.13;;;5.39;64.48
15267;BME280;7735;49.144;8.668;2023-01-25T05:42:30;101828.44;;;5.36;64.20
15267;BME280;7735;49.144;8.668;2023-01-25T05:44:56;101830.09;;;5.34;64.02
15267;BME280;7735;49.144;8.668;2023-01-25T05:47:23;101828.31;;;5.33;64.28
15267;BME280;7735;49.144;8.668;2023-01-25T05:49:49;101829.19;;;5.34;64.43
15267;BME280;7735;49.144;8.668;2023-01-25T05:52:17;101828.31;;;5.33;64.39
15267;BME280;7735;49.144;8.668;2023-01-25T05:54:44;101823.16;;;5.33;64.38
15267;BME280;7735;49.144;8.668;2023-01-25T05:57:12;101819.69;;;5.33;64.41
15267;BME280;7735;49.144;8.668;2023-01-25T05:59:39;101823.16;;;5.33;64.48
15267;BME280;7735;49.144;8.668;2023-01-25T06:02:05;101810.25;;;5.33;64.58
15267;BME280;7735;49.144;8.668;2023-01-25T06:04:35;101808.50;;;5.32;64.52
15267;BME280;7735;49.144;8.668;2023-01-25T06:07:01;101802.44;;;5.32;64.79
15267;BME280;7735;49.144;8.668;2023-01-25T06:09:29;101804.16;;;5.31;64.43
15267;BME280;7735;49.144;8.668;2023-01-25T06:11:57;101802.41;;;5.30;64.32
15267;BME280;7735;49.144;8.668;2023-01-25T06:14:24;101792.06;;;5.30;64.63
15267;BME280;7735;49.144;8.668;2023-01-25T06:16:51;101793.81;;;5.31;64.63
15267;BME280;7735;49.144;8.668;2023-01-25T06:19:17;101783.50;;;5.31;64.77
15267;BME280;7735;49.144;8.668;2023-01-25T06:21:50;101793.00;;;5.32;65.06
15267;BME280;7735;49.144;8.668;2023-01-25T06:24:16;101786.13;;;5.33;64.50
15267;BME280;7735;49.144;8.668;2023-01-25T06:26:44;101793.06;;;5.34;64.52
15267;BME280;7735;49.144;8.668;2023-01-25T06:29:11;101792.19;;;5.33;65.03
15267;BME280;7735;49.144;8.668;2023-01-25T06:31:38;101787.88;;;5.34;64.54
15267;BME280;7735;49.144;8.668;2023-01-25T06:34:10;101789.66;;;5.35;64.99
15267;BME280;7735;49.144;8.668;2023-01-25T06:36:37;101783.59;;;5.34;64.66
15267;BME280;7735;49.144;8.668;2023-01-25T06:39:03;101784.53;;;5.36;65.01
15267;BME280;7735;49.144;8.668;2023-01-25T06:41:30;101794.03;;;5.37;65.02
15267;BME280;7735;49.144;8.668;2023-01-25T06:43:58;101791.41;;;5.36;65.02
15267;BME280;7735;49.144;8.668;2023-01-25T06:46:25;101789.72;;;5.36;65.15
15267;BME280;7735;49.144;8.668;2023-01-25T06:48:52;101795.69;;;5.35;64.76
15267;BME280;7735;49.144;8.668;2023-01-25T06:51:18;101800.09;;;5.38;64.91
15267;BME280;7735;49.144;8.668;2023-01-25T06:53:45;101795.75;;;5.37;64.75
15267;BME280;7735;49.144;8.668;2023-01-25T06:56:13;101797.44;;;5.36;65.03
15267;BME280;7735;49.144;8.668;2023-01-25T06:58:49;101797.44;;;5.36;65.12
15267;BME280;7735;49.144;8.668;2023-01-25T07:01:19;101797.44;;;5.36;64.84
15267;BME280;7735;49.144;8.668;2023-01-25T07:03:47;101793.16;;;5.37;65.15
15267;BME280;7735;49.144;8.668;2023-01-25T07:06:14;101793.94;;;5.34;64.97
15267;BME280;7735;49.144;8.668;2023-01-25T07:08:40;101792.19;;;5.33;64.81
15267;BME280;7735;49.144;8.668;2023-01-25T07:11:09;101787.00;;;5.33;64.95
15267;BME280;7735;49.144;8.668;2023-01-25T07:13:38;101787.00;;;5.33;65.02
15267;BME280;7735;49.144;8.668;2023-01-25T07:16:07;101783.59;;;5.34;64.75
15267;BME280;7735;49.144;8.668;2023-01-25T07:18:37;101793.94;;;5.34;64.92
15267;BME280;7735;49.144;8.668;2023-01-25T07:21:08;101793.94;;;5.34;65.08
15267;BME280;7735;49.144;8.668;2023-01-25T07:23:35;101793.06;;;5.34;64.87
15267;BME280;7735;49.144;8.668;2023-01-25T07:26:04;101796.56;;;5.36;65.11
15267;BME280;7735;49.144;8.668;2023-01-25T07:28:31;101786.31;;;5.37;65.16
15267;BME280;7735;49.144;8.668;2023-01-25T07:31:03;101779.44;;;5.38;65.05
15267;BME280;7735;49.144;8.668;2023-01-25T07:33:30;101780.31;;;5.38;65.10
15267;BME280;7735;49.144;8.668;2023-01-25T07:36:00;101775.16;;;5.38;65.17
15267;BME280;7735;49.144;8.668;2023-01-25T07:38:26;101784.75;;;5.41;65.30
15267;BME280;7735;49.144;8.668;2023-01-25T07:40:53;101780.56;;;5.45;64.99
15267;BME280;7735;49.144;8.668;2023-01-25T07:43:20;101780.63;;;5.46;64.85
15267;BME280;7735;49.144;8.668;2023-01-25T07:45:46;101776.28;;;5.45;65.21
15267;BME280;7735;49.144;8.668;2023-01-25T07:48:14;101778.81;;;5.44;64.81
15267;BME280;7735;49.144;8.668;2023-01-25T07:50:40;101780.50;;;5.43;65.20
15267;BME280;7735;49.144;8.668;2023-01-25T07:53:12;101787.38;;;5.43;65.01
15267;BME280;7735;49.144;8.668;2023-01-25T07:55:38;101789.09;;;5.42;64.87
15267;BME280;7735;49.144;8.668;2023-01-25T07:58:05;101787.38;;;5.43;65.16
15267;BME280;7735;49.144;8.668;2023-01-25T08:00:31;101786.56;;;5.44;65.16
15267;BME280;7735;49.144;8.668;2023-01-25T08:02:58;101779.69;;;5.44;64.85
15267;BME280;7735;49.144;8.668;2023-01-25T08:05:24;101787.38;;;5.43;64.69
15267;BME280;7735;49.144;8.668;2023-01-25T08:07:51;101788.25;;;5.43;64.92
15267;BME280;7735;49.144;8.668;2023-01-25T08:10:19;101777.94;;;5.43;64.86
15267;BME280;7735;49.144;8.668;2023-01-25T08:12:46;101777.16;;;5.46;64.94
15267;BME280;7735;49.144;8.668;2023-01-25T08:15:12;101776.28;;;5.45;65.03
15267;BME280;7735;49.144;8.668;2023-01-25T08:17:39;101774.56;;;5.46;65.15
15267;BME280;7735;49.144;8.668;2023-01-25T08:20:07;101776.34;;;5.47;65.18
15267;BME280;7735;49.144;8.668;2023-01-25T08:22:34;101773.00;;;5.49;64.78
15267;BME280;7735;49.144;8.668;2023-01-25T08:25:01;101768.84;;;5.53;65.11
15267;BME280;7735;49.144;8.668;2023-01-25T08:27:29;101772.50;;;5.58;64.60
15267;BME280;7735;49.144;8.668;2023-01-25T08:29:55;101773.44;;;5.60;64.60
15267;BME280;7735;49.144;8.668;2023-01-25T08:32:22;101762.28;;;5.61;64.51
15267;BME280;7735;49.144;8.668;2023-01-25T08:34:48;101774.34;;;5.62;64.71
15267;BME280;7735;49.144;8.668;2023-01-25T08:37:15;101764.03;;;5.62;64.02
15267;BME280;7735;49.144;8.668;2023-01-25T08:39:42;101764.03;;;5.62;64.03
15267;BME280;7735;49.144;8.668;2023-01-25T08:42:08;101759.75;;;5.62;64.13
15267;BME280;7735;49.144;8.668;2023-01-25T08:44:36;101770.84;;;5.60;64.11
15267;BME280;7735;49.144;8.668;2023-01-25T08:47:03;101758.81;;;5.60;64.22
15267;BME280;7735;49.144;8.668;2023-01-25T08:49:30;101757.94;;;5.60;63.81
15267;BME280;7735;49.144;8.668;2023-01-25T08:51:58;101756.22;;;5.60;63.85
15267;BME280;7735;49.144;8.668;2023-01-25T08:54:25;101746.66;;;5.58;64.11
15267;BME280;7735;49.144;8.668;2023-01-25T08:56:51;101750.19;;;5.60;64.01
15267;BME280;7735;49.144;8.668;2023-01-25T08:59:18;101752.75;;;5.60;64.13
15267;BME280;7735;49.144;8.668;2023-01-25T09:01:46;101754.47;;;5.59;64.12
15267;BME280;7735;49.144;8.668;2023-01-25T09:04:12;101757.00;;;5.58;64.44
15267;BME280;7735;49.144;8.668;2023-01-25T09:06:39;101751.84;;;5.58;64.16
15267;BME280;7735;49.144;8.668;2023-01-25T09:09:06;101749.16;;;5.56;64.27
15267;BME280;7735;49.144;8.668;2023-01-25T09:11:34;101750.00;;;5.55;64.53
15267;BME280;7735;49.144;8.668;2023-01-25T09:14:01;101736.34;;;5.58;64.45
15267;BME280;7735;49.144;8.668;2023-01-25T09:16:28;101745.00;;;5.60;64.29
15267;BME280;7735;49.144;8.668;2023-01-25T09:18:57;101743.25;;;5.59;64.24
15267;BME280;7735;49.144;8.668;2023-01-25T09:21:24;101735.50;;;5.59;64.05
15267;BME280;7735;49.144;8.668;2023-01-25T09:23:51;101743.25;;;5.59;64.08
15267;BME280;7735;49.144;8.668;2023-01-25T09:26:18;101738.09;;;5.59;63.86
15267;BME280;7735;49.144;8.668;2023-01-25T09:28:46;101730.41;;;5.60;64.11
15267;BME280;7735;49.144;8.668;2023-01-25T09:31:13;101733.84;;;5.61;63.76
15267;BME280;7735;49.144;8.668;2023-01-25T09:33:40;101741.59;;;5.61;63.55
15267;BME280;7735;49.144;8.668;2023-01-25T09:36:08;101733.84;;;5.61;63.74
15267;BME280;7735;49.144;8.668;2023-01-25T09:38:35;101733.03;;;5.62;63.96
15267;BME280;7735;49.144;8.668;2023-01-25T09:41:13;101731.28;;;5.61;63.48
15267;BME280;7735;49.144;8.668;2023-01-25T09:44:02;101737.25;;;5.60;63.63
15267;BME280;7735;49.144;8.668;2023-01-25T09:46:38;101732.16;;;5.61;63.39
15267;BME280;7735;49.144;8.668;2023-01-25T09:49:18;101733.03;;;5.62;63.67
15267;BME280;7735;49.144;8.668;2023-01-25T09:51:59;101730.50;;;5.63;63.31
15267;BME280;7735;49.144;8.668;2023-01-25T09:54:30;101731.38;;;5.64;63.36
15267;BME280;7735;49.144;8.668;2023-01-25T09:57:00;101729.63;;;5.63;63.35
15267;BME280;7735;49.144;8.668;2023-01-25T09:59:29;101725.28;;;5.62;63.57
15267;BME280;7735;49.144;8.668;2023-01-25T10:01:59;101727.88;;;5.62;63.45
15267;BME280;7735;49.144;8.668;2023-01-25T10:04:29;101733.03;;;5.62;63.29
15267;BME280;7735;49.144;8.668;2023-01-25T10:07:09;101726.22;;;5.64;63.49
15267;BME280;7735;49.144;8.668;2023-01-25T10:09:41;101727.97;;;5.65;63.23
15267;BME280;7735;49.144;8.668;2023-01-25T10:12:15;101721.03;;;5.64;63.32
15267;BME280;7735;49.144;8.668;2023-01-25T10:14:44;101718.47;;;5.64;63.07
15267;BME280;7735;49.144;8.668;2023-01-25T10:17:13;101715.88;;;5.64;63.52
15267;BME280;7735;49.144;8.668;2023-01-25T10:19:53;101713.38;;;5.65;63.17
15267;BME280;7735;49.144;8.668;2023-01-25T10:22:27;101714.25;;;5.66;63.59
15267;BME280;7735;49.144;8.668;2023-01-25T10:25:11;101716.84;;;5.66;63.33
15267;BME280;7735;49.144;8.668;2023-01-25T10:27:48;101711.59;;;5.64;63.39
15267;BME280;7735;49.144;8.668;2023-01-25T10:30:24;101712.47;;;5.65;63.16
15267;BME280;7735;49.144;8.668;2023-01-25T10:32:54;101714.13;;;5.63;63.12
15267;BME280;7735;49.144;8.668;2023-01-25T10:35:26;101706.38;;;5.63;62.97
15267;BME280;7735;49.144;8.668;2023-01-25T10:37:58;101702.03;;;5.62;63.47
15267;BME280;7735;49.144;8.668;2023-01-25T10:40:30;101696.03;;;5.63;63.58
15267;BME280;7735;49.144;8.668;2023-01-25T10:43:04;101697.75;;;5.62;63.01
15267;BME280;7735;49.144;8.668;2023-01-25T10:45:33;101696.03;;;5.63;62.88
15267;BME280;7735;49.144;8.668;2023-01-25T10:48:01;101693.47;;;5.63;63.19
15267;BME280;7735;49.144;8.668;2023-01-25T10:50:45;101686.63;;;5.65;62.81
15267;BME280;7735;49.144;8.668;2023-01-25T10:53:29;101690.06;;;5.64;63.07
15267;BME280;7735;49.144;8.668;2023-01-25T10:56:15;101688.28;;;5.63;62.62
15267;BME280;7735;49.144;8.668;2023-01-25T10:58:45;101679.72;;;5.64;62.82
15267;BME280;7735;49.144;8.668;2023-01-25T11:01:24;101681.38;;;5.62;62.87
15267;BME280;7735;49.144;8.668;2023-01-25T11:03:51;101685.66;;;5.61;62.99
15267;BME280;7735;49.144;8.668;2023-01-25T11:06:28;101672.78;;;5.63;62.58
15267;BME280;7735;49.144;8.668;2023-01-25T11:08:56;101670.22;;;5.63;62.72
15267;BME280;7735;49.144;8.668;2023-01-25T11:11:25;101661.63;;;5.64;62.79
15267;BME280;7735;49.144;8.668;2023-01-25T11:13:53;101655.63;;;5.65;62.60
15267;BME280;7735;49.144;8.668;2023-01-25T11:16:29;101653.97;;;5.65;62.87
15267;BME280;7735;49.144;8.668;2023-01-25T11:18:58;101656.59;;;5.67;63.16
15267;BME280;7735;49.144;8.668;2023-01-25T11:21:27;101648.84;;;5.67;62.94
15267;BME280;7735;49.144;8.668;2023-01-25T11:24:16;101643.75;;;5.68;62.73
15267;BME280;7735;49.144;8.668;2023-01-25T11:26:43;101638.63;;;5.70;62.87
15267;BME280;7735;49.144;8.668;2023-01-25T11:29:14;101628.28;;;5.70;62.47
15267;BME280;7735;49.144;8.668;2023-01-25T11:31:43;101628.28;;;5.70;62.70
15267;BME280;7735;49.144;8.668;2023-01-25T11:34:13;101620.50;;;5.68;62.39
15267;BME280;7735;49.144;8.668;2023-01-25T11:36:57;101617.97;;;5.70;62.69
15267;BME280;7735;49.144;8.668;2023-01-25T11:39:39;101611.03;;;5.69;62.35
15267;BME280;7735;49.144;8.668;2023-01-25T11:42:17;101611.84;;;5.68;62.31
15267;BME280;7735;49.144;8.668;2023-01-25T11:48:12;101597.19;;;5.67;62.51
15267;BME280;7735;49.144;8.668;2023-01-25T11:50:50;101595.44;;;5.66;62.31
15267;BME280;7735;49.144;8.668;2023-01-25T11:53:34;101587.69;;;5.66;62.68
15267;BME280;7735;49.144;8.668;2023-01-25T11:56:10;101575.66;;;5.66;62.92
15267;BME280;7735;49.144;8.668;2023-01-25T11:58:52;101573.13;;;5.68;62.78
15267;BME280;7735;49.144;8.668;2023-01-25T12:01:29;101566.28;;;5.70;62.70
15267;BME280;7735;49.144;8.668;2023-01-25T12:07:00;101560.38;;;5.74;62.12
15267;BME280;7735;49.144;8.668;2023-01-25T12:09:38;101551.84;;;5.75;62.58
15267;BME280;7735;49.144;8.668;2023-01-25T12:12:16;101553.59;;;5.76;62.51
15267;BME280;7735;49.144;8.668;2023-01-25T12:15:02;101546.66;;;5.75;62.47
15267;BME280;7735;49.144;8.668;2023-01-25T12:18:01;101534.63;;;5.76;62.26
15267;BME280;7735;49.144;8.668;2023-01-25T12:20:46;101533.75;;;5.75;62.49
15267;BME280;7735;49.144;8.668;2023-01-25T12:23:28;101521.63;;;5.74;62.42
15267;BME280;7735;49.144;8.668;2023-01-25T12:26:11;101516.47;;;5.74;62.15
15267;BME280;7735;49.144;8.668;2023-01-25T12:28:46;101509.69;;;5.76;61.89
15267;BME280;7735;49.144;8.668;2023-01-25T12:31:17;101509.69;;;5.76;62.23
15267;BME280;7735;49.144;8.668;2023-01-25T12:33:48;101504.50;;;5.76;62.15
15267;BME280;7735;49.144;8.668;2023-01-25T12:36:20;101497.59;;;5.75;61.89
15267;BME280;7735;49.144;8.668;2023-01-25T12:38:54;101495.00;;;5.75;62.38
15267;BME280;7735;49.144;8.668;2023-01-25T12:41:38;101487.25;;;5.75;61.67
15267;BME280;7735;49.144;8.668;2023-01-25T12:44:19;101484.59;;;5.74;61.84
15267;BME280;7735;49.144;8.668;2023-01-25T12:46:53;101486.38;;;5.75;61.61
15267;BME280;7735;49.144;8.668;2023-01-25T12:49:29;101479.44;;;5.74;61.91
15267;BME280;7735;49.144;8.668;2023-01-25T12:52:04;101482.00;;;5.74;61.75
15267;BME280;7735;49.144;8.668;2023-01-25T12:54:35;101475.91;;;5.72;61.85
15267;BME280;7735;49.144;8.668;2023-01-25T12:57:10;101479.50;;;5.75;61.61
15267;BME280;7735;49.144;8.668;2023-01-25T12:59:49;101468.34;;;5.76;61.68
15267;BME280;7735;49.144;8.668;2023-01-25T13:02:45;101456.31;;;5.77;61.36
15267;BME280;7735;49.144;8.668;2023-01-25T13:05:24;101446.84;;;5.77;61.22
15267;BME280;7735;49.144;8.668;2023-01-25T13:07:59;101454.69;;;5.80;61.63
15267;BME280;7735;49.144;8.668;2023-01-25T13:10:32;101443.56;;;5.83;61.08
15267;BME280;7735;49.144;8.668;2023-01-25T13:13:02;101444.47;;;5.83;61.22
15267;BME280;7735;49.144;8.668;2023-01-25T13:15:44;101444.56;;;5.86;60.98
15267;BME280;7735;49.144;8.668;2023-01-25T13:18:36;101436.81;;;5.86;61.31
15267;BME280;7735;49.144;8.668;2023-01-25T13:21:08;101436.75;;;5.85;60.84
15267;BME280;7735;49.144;8.668;2023-01-25T13:23:37;101429.75;;;5.82;61.19
15267;BME280;7735;49.144;8.668;2023-01-25T13:35:40;101411.63;;;5.81;61.08
15267;BME280;7735;49.144;8.668;2023-01-25T13:38:28;101413.34;;;5.80;60.45
15267;BME280;7735;49.144;8.668;2023-01-25T13:41:10;101411.69;;;5.82;60.91